Historique des mesures à Cassis (13260), France
Quotidien Résumé Janvier 20, 2021 Unités:  Métrique/US    US   Métrique
Quotidien Hebdomadaire Mensuel Annuel
  Maximum: Minimum: Moyenne:
Température: 90.1 °F /  32.3 °C 74.5 °F /  23.6 °C 79.7 °F /  26.5 °C
Point de rosée: 69.3 °F /  20.7 °C 61.2 °F /  16.2 °C 66.6 °F /  19.2 °C
Humidité: 79% 48% 65%
Vitesse du vent: 5.2mph /  8.3km/h - 2mph /  3.2km/h
Rafales: 15.7mph /  25.2km/h - -
Vent- - SE
Pression: 29.9 in /  1012.6 hPa 29.7 in /  1004.6 hPa -
Précipitations: 0 in /  0.0 mm    
Historical Graphs
 
 
Mesures pour : Janvier 20, 2021
Heure Temperature Point de rosée Pression Vent Vitesse du vent Rafales Humidité Pluie (par heure)
00:10 75.4 °F /  24.1 °C 63.1 °F /  17.3 °C 29.9in /  1012.0hPa Calm   3.1mph /  5km/h 66% 0in /  0.0mm
01:10 75 °F /  23.9 °C 66.6 °F /  19.2 °C 29.9in /  1012.6hPa Calm     75% 0in /  0.0mm
02:10 74.5 °F /  23.6 °C 67.6 °F /  19.8 °C 29.9in /  1012.0hPa Calm   2mph /  3.2km/h 79% 0in /  0.0mm
03:11 74.5 °F /  23.6 °C 67.3 °F /  19.6 °C 29.8in /  1010.5hPa North 2mph /  3.2km/h 5.3mph /  8.6km/h 78% 0in /  0.0mm
04:11 74.8 °F /  23.8 °C 64.4 °F /  18 °C 29.8in /  1008.6hPa NNW 1.8mph /  2.9km/h 2.2mph /  3.6km/h 70% 0in /  0.0mm
05:11 76.1 °F /  24.5 °C 62.6 °F /  17 °C 29.8in /  1008.2hPa NE 1.4mph /  2.2km/h 6mph /  9.7km/h 63% 0in /  0.0mm
06:11 77 °F /  25 °C 61.5 °F /  16.4 °C 29.7in /  1007.3hPa Calm   1.1mph /  1.8km/h 59% 0in /  0.0mm
07:11 77.5 °F /  25.3 °C 61.2 °F /  16.2 °C 29.8in /  1007.4hPa North 0.9mph /  1.4km/h 2.7mph /  4.3km/h 57% 0in /  0.0mm
08:11 85.8 °F /  29.9 °C 64.6 °F /  18.1 °C 29.7in /  1007.1hPa Calm   4mph /  6.5km/h 49% 0in /  0.0mm
09:11 82.2 °F /  27.9 °C 66.4 °F /  19.1 °C 29.7in /  1007.3hPa WNW 3.1mph /  5km/h 8.1mph /  13km/h 59% 0in /  0.0mm
10:10 84.4 °F /  29.1 °C 69.1 °F /  20.6 °C 29.8in /  1007.5hPa SW 3.8mph /  6.1km/h 6.5mph /  10.4km/h 60% 0in /  0.0mm
11:11 81.3 °F /  27.4 °C 66.6 °F /  19.2 °C 29.8in /  1008.1hPa SE 2.2mph /  3.6km/h 8.5mph /  13.7km/h 61% 0in /  0.0mm
12:11 79.2 °F /  26.2 °C 65.1 °F /  18.4 °C 29.7in /  1006.1hPa SE 5.2mph /  8.3km/h 15.7mph /  25.2km/h 62% 0in /  0.0mm
13:10 84.6 °F /  29.2 °C 66.6 °F /  19.2 °C 29.7in /  1005.2hPa SSW 3.6mph /  5.8km/h 5.8mph /  9.4km/h 55% 0in /  0.0mm
14:11 87.3 °F /  30.7 °C 65.8 °F /  18.8 °C 29.7in /  1005.0hPa SSE 3.8mph /  6.1km/h 9.2mph /  14.8km/h 49% 0in /  0.0mm
15:11 90.1 °F /  32.3 °C 67.8 °F /  19.9 °C 29.7in /  1004.6hPa ESE 3.8mph /  6.1km/h 7.4mph /  11.9km/h 48% 0in /  0.0mm
16:10 85.8 °F /  29.9 °C 67.3 °F /  19.6 °C 29.7in /  1005.1hPa SE 3.6mph /  5.8km/h 7.4mph /  11.9km/h 54% 0in /  0.0mm
17:11 81.1 °F /  27.3 °C 68.7 °F /  20.4 °C 29.7in /  1005.1hPa SE 3.6mph /  5.8km/h 11.9mph /  19.1km/h 66% 0in /  0.0mm
18:10 79.2 °F /  26.2 °C 68.9 °F /  20.5 °C 29.7in /  1005.4hPa SE 2.5mph /  4km/h 13mph /  20.9km/h 71% 0in /  0.0mm
19:10 78.6 °F /  25.9 °C 69.3 °F /  20.7 °C 29.7in /  1004.9hPa East 2.2mph /  3.6km/h 4.2mph /  6.8km/h 73% 0in /  0.0mm
20:11 78.3 °F /  25.7 °C 69.3 °F /  20.7 °C 29.7in /  1005.0hPa ESE 2mph /  3.2km/h 4.9mph /  7.9km/h 74% 0in /  0.0mm
21:11 77.2 °F /  25.1 °C 69.1 °F /  20.6 °C 29.7in /  1004.9hPa Calm   0.9mph /  1.4km/h 76% 0in /  0.0mm
22:11 76.3 °F /  24.6 °C 68.9 °F /  20.5 °C 29.7in /  1005.7hPa ESE 1.6mph /  2.5km/h 4.2mph /  6.8km/h 78% 0in /  0.0mm
23:11 75.7 °F /  24.3 °C 68.7 °F /  20.4 °C 29.7in /  1006.5hPa Calm   2mph /  3.2km/h 79% 0in /  0.0mm
Observations météo à CASSIS
WU-History script by Weather Underground - 2 mb